Time;durP1;ratioP1;P1;durP2;ratioP2;P2;SDS_P1;SDS_P2;PMS_P1;PMS_P2;Temp;Humidity;BMP_temperature;BMP_pressure;BME280_temperature;BME280_humidity;BME280_pressure;Samples;Min_cycle;Max_cycle;Signal;HPM_P1;HPM_P2
2022/03/26 00:01:05;;;;;;;26.10;24.90;;;19.80;50.40;;;;;;5073756;28;20440;-64
2022/03/26 00:03:32;;;;;;;27.37;26.10;;;19.80;50.40;;;;;;5073621;28;20479;-64
2022/03/26 00:06:00;;;;;;;27.00;25.90;;;19.70;50.90;;;;;;5073360;28;20974;-63
2022/03/26 00:08:26;;;;;;;26.40;25.30;;;19.70;50.50;;;;;;5073591;28;20447;-62
2022/03/26 00:10:53;;;;;;;25.73;24.63;;;19.70;50.50;;;;;;5073474;28;20446;-64
2022/03/26 00:13:21;;;;;;;29.50;28.30;;;19.70;50.60;;;;;;5073369;28;20525;-64
2022/03/26 00:15:47;;;;;;;26.03;24.93;;;19.70;50.60;;;;;;5073648;28;20493;-64
2022/03/26 00:18:17;;;;;;;26.97;25.77;;;19.70;50.60;;;;;;5073285;28;20480;-64
2022/03/26 00:20:44;;;;;;;26.00;24.80;;;19.70;50.60;;;;;;5073402;28;20577;-64
2022/03/26 00:23:11;;;;;;;26.40;25.20;;;19.60;50.60;;;;;;5073368;28;20460;-64
2022/03/26 00:25:38;;;;;;;26.10;24.90;;;19.60;50.60;;;;;;5073600;28;20802;-64
2022/03/26 00:28:05;;;;;;;27.10;25.90;;;19.70;50.60;;;;;;5073027;28;20539;-63
2022/03/26 00:30:32;;;;;;;25.70;24.50;;;19.60;50.60;;;;;;5072839;28;20474;-63
2022/03/26 00:32:59;;;;;;;27.50;26.20;;;19.60;50.70;;;;;;5073240;28;20467;-63
2022/03/26 00:35:27;;;;;;;26.83;25.63;;;19.60;50.70;;;;;;5073249;28;20455;-64
2022/03/26 00:37:54;;;;;;;26.33;25.13;;;19.60;50.70;;;;;;5073192;28;20483;-64
2022/03/26 00:40:21;;;;;;;25.30;24.10;;;19.60;50.80;;;;;;5072643;28;20436;-64
2022/03/26 00:42:48;;;;;;;26.17;24.93;;;19.60;50.80;;;;;;5073252;28;20464;-63
2022/03/26 00:45:14;;;;;;;27.37;25.97;;;19.50;50.80;;;;;;5073098;28;20452;-63
2022/03/26 00:47:41;;;;;;;26.87;25.67;;;19.50;50.90;;;;;;5073027;28;20926;-62
2022/03/26 00:50:10;;;;;;;27.97;26.70;;;19.50;50.90;;;;;;5072413;28;20937;-62
2022/03/26 00:52:38;;;;;;;27.50;26.20;;;19.50;51.00;;;;;;5071776;28;20463;-64
2022/03/26 00:55:07;;;;;;;28.50;27.20;;;19.50;51.10;;;;;;5061952;28;20538;-64
2022/03/26 00:57:34;;;;;;;26.20;25.10;;;19.50;51.10;;;;;;5072676;28;20447;-63
2022/03/26 01:00:00;;;;;;;27.37;26.17;;;19.40;51.00;;;;;;5072476;28;20439;-64
2022/03/26 01:02:27;;;;;;;27.50;26.20;;;19.40;51.00;;;;;;5072517;28;20439;-63
2022/03/26 01:04:54;;;;;;;26.90;25.60;;;19.50;51.10;;;;;;5072903;28;20444;-62
2022/03/26 01:07:21;;;;;;;27.87;26.67;;;19.40;50.90;;;;;;5071747;28;20808;-62
2022/03/26 01:09:49;;;;;;;27.77;26.57;;;19.40;51.00;;;;;;5072761;28;20465;-63
2022/03/26 01:12:17;;;;;;;28.10;26.90;;;19.40;51.00;;;;;;5072329;28;20459;-63
2022/03/26 01:14:44;;;;;;;27.07;25.90;;;19.40;51.00;;;;;;5072804;28;20447;-62
2022/03/26 01:17:10;;;;;;;26.50;25.40;;;19.40;51.00;;;;;;5072483;28;20443;-62
2022/03/26 01:19:37;;;;;;;27.20;25.80;;;19.40;51.00;;;;;;5072401;28;21067;-62
2022/03/26 01:22:04;;;;;;;28.07;26.77;;;19.30;51.10;;;;;;5072304;28;20447;-62
2022/03/26 01:24:31;;;;;;;28.83;27.23;;;19.40;51.10;;;;;;5072380;28;20478;-63
2022/03/26 01:26:59;;;;;;;28.47;27.17;;;19.40;51.10;;;;;;5072127;28;20440;-62
2022/03/26 01:29:26;;;;;;;28.00;26.70;;;19.30;51.10;;;;;;5071513;28;20442;-62
2022/03/26 01:31:53;;;;;;;27.57;26.37;;;19.30;51.10;;;;;;5071798;28;20448;-62
2022/03/26 01:34:22;;;;;;;27.63;26.50;;;19.30;51.20;;;;;;5071971;28;20455;-63
2022/03/26 01:36:49;;;;;;;26.47;25.33;;;19.20;51.20;;;;;;5071979;28;20439;-62
2022/03/26 01:39:17;;;;;;;27.57;26.27;;;19.20;51.30;;;;;;5071559;28;20478;-62
2022/03/26 01:41:44;;;;;;;27.50;26.30;;;19.20;51.20;;;;;;5071870;28;20807;-62
2022/03/26 01:44:14;;;;;;;27.30;26.10;;;19.30;51.30;;;;;;5072354;28;20783;-63
2022/03/26 01:46:48;;;;;;;27.37;25.97;;;19.20;51.40;;;;;;5071782;28;20444;-62
2022/03/26 01:49:15;;;;;;;26.30;25.10;;;19.20;51.50;;;;;;5071510;28;20447;-62
2022/03/26 01:51:42;;;;;;;28.23;26.70;;;19.10;51.50;;;;;;5071442;28;20446;-62
2022/03/26 01:54:10;;;;;;;26.60;25.27;;;19.10;51.60;;;;;;5071724;28;20475;-62
2022/03/26 01:56:39;;;;;;;26.77;25.67;;;19.10;51.60;;;;;;5071546;28;20952;-62
2022/03/26 01:59:06;;;;;;;28.73;27.40;;;19.10;51.70;;;;;;5071049;28;20839;-62
2022/03/26 02:01:35;;;;;;;29.10;27.70;;;19.10;51.80;;;;;;5071408;28;20451;-61
2022/03/26 02:04:02;;;;;;;27.80;26.60;;;19.10;51.80;;;;;;5071974;28;20482;-62
2022/03/26 02:06:31;;;;;;;28.07;26.77;;;19.10;51.70;;;;;;5071978;28;20765;-62
2022/03/26 02:08:58;;;;;;;27.30;26.00;;;19.10;51.90;;;;;;5070829;28;20440;-62
2022/03/26 02:11:25;;;;;;;25.60;24.30;;;19.00;51.90;;;;;;5071214;28;20455;-62
2022/03/26 02:13:53;;;;;;;27.40;26.23;;;19.00;52.00;;;;;;5071379;28;20463;-62
2022/03/26 02:16:21;;;;;;;26.50;25.30;;;19.00;52.00;;;;;;5071675;28;20505;-63
2022/03/26 02:18:49;;;;;;;26.70;25.40;;;19.00;51.90;;;;;;5070025;28;20485;-62
2022/03/26 02:21:19;;;;;;;26.70;25.50;;;19.00;52.10;;;;;;5071761;28;20443;-61
2022/03/26 02:23:46;;;;;;;26.33;25.13;;;18.90;52.10;;;;;;5071305;28;20467;-62
2022/03/26 02:26:16;;;;;;;26.70;25.57;;;19.00;52.20;;;;;;5071632;28;20458;-62
2022/03/26 02:28:44;;;;;;;27.97;26.77;;;18.90;52.10;;;;;;5070755;28;20467;-61
2022/03/26 02:31:11;;;;;;;26.20;25.10;;;18.90;52.20;;;;;;5071319;28;20443;-62
2022/03/26 02:33:37;;;;;;;26.60;25.40;;;18.90;52.30;;;;;;5071154;28;20464;-63
2022/03/26 02:36:04;;;;;;;28.30;26.87;;;18.90;52.30;;;;;;5071144;28;20435;-62
2022/03/26 02:38:33;;;;;;;26.83;25.63;;;18.90;52.40;;;;;;5070975;28;20487;-62
2022/03/26 02:41:00;;;;;;;27.47;26.00;;;18.80;52.30;;;;;;5071435;28;20454;-62
2022/03/26 02:43:27;;;;;;;27.83;26.43;;;18.80;52.50;;;;;;5071133;28;20799;-62
2022/03/26 02:45:54;;;;;;;27.20;26.10;;;18.90;52.40;;;;;;5071474;28;20522;-62
2022/03/26 02:48:21;;;;;;;26.90;25.60;;;18.90;52.40;;;;;;5070716;28;20464;-62
2022/03/26 02:50:47;;;;;;;27.83;26.60;;;18.90;52.40;;;;;;5071412;28;20814;-62
2022/03/26 02:53:14;;;;;;;26.83;25.63;;;18.90;52.30;;;;;;5071062;28;20468;-62
2022/03/26 02:55:43;;;;;;;27.50;26.20;;;18.90;52.40;;;;;;5071226;28;20440;-62
2022/03/26 02:58:10;;;;;;;30.27;28.97;;;18.90;52.40;;;;;;5070520;28;20443;-62
2022/03/26 03:00:37;;;;;;;26.57;25.37;;;18.80;52.50;;;;;;5070988;28;20456;-62
2022/03/26 03:03:05;;;;;;;27.97;26.77;;;18.80;52.50;;;;;;5070751;28;20467;-62
2022/03/26 03:05:31;;;;;;;26.40;25.10;;;18.80;52.50;;;;;;5070998;28;20458;-62
2022/03/26 03:07:58;;;;;;;28.60;27.30;;;18.80;52.50;;;;;;5070499;28;20440;-62
2022/03/26 03:10:25;;;;;;;28.77;27.47;;;18.80;52.60;;;;;;5071197;28;20494;-62
2022/03/26 03:12:53;;;;;;;29.00;27.63;;;18.70;52.70;;;;;;5070830;28;20471;-62
2022/03/26 03:15:21;;;;;;;28.20;26.70;;;18.70;52.80;;;;;;5071093;28;20454;-63
2022/03/26 03:17:50;;;;;;;28.77;27.27;;;18.70;52.80;;;;;;5070712;28;20444;-62
2022/03/26 03:20:17;;;;;;;29.60;28.20;;;18.70;52.90;;;;;;5070679;28;20885;-62
2022/03/26 03:22:44;;;;;;;29.23;27.93;;;18.70;52.90;;;;;;5070774;28;20828;-62
2022/03/26 03:25:11;;;;;;;30.73;29.13;;;18.70;52.90;;;;;;5071032;28;20455;-62
2022/03/26 03:27:40;;;;;;;29.60;28.20;;;18.70;53.00;;;;;;5070563;28;20444;-62
2022/03/26 03:30:10;;;;;;;26.77;25.50;;;18.70;53.00;;;;;;5070750;28;20538;-62
2022/03/26 03:32:37;;;;;;;28.50;26.90;;;18.60;52.90;;;;;;5074106;28;20471;-62
2022/03/26 03:35:05;;;;;;;27.63;26.37;;;18.60;53.10;;;;;;5074368;28;20439;-62
2022/03/26 03:37:35;;;;;;;28.13;26.90;;;18.60;53.10;;;;;;5074067;28;20711;-63
2022/03/26 03:40:03;;;;;;;29.40;28.07;;;18.70;53.10;;;;;;5054458;28;20479;-62
2022/03/26 03:42:30;;;;;;;28.73;27.43;;;18.60;53.00;;;;;;5058915;28;20820;-62
2022/03/26 03:44:56;;;;;;;28.20;26.90;;;18.60;53.20;;;;;;5074446;28;20451;-62
2022/03/26 03:47:25;;;;;;;28.37;26.97;;;18.60;53.20;;;;;;5074212;28;20773;-62
2022/03/26 03:49:52;;;;;;;27.43;26.13;;;18.60;53.20;;;;;;5073431;28;20435;-62
2022/03/26 03:52:19;;;;;;;27.53;26.33;;;18.50;53.20;;;;;;5073726;28;20440;-61
2022/03/26 03:54:46;;;;;;;29.40;28.00;;;18.50;53.20;;;;;;5074392;28;20928;-63
2022/03/26 03:57:13;;;;;;;28.07;26.77;;;18.60;53.30;;;;;;5073925;28;20447;-61
2022/03/26 03:59:41;;;;;;;27.83;26.53;;;18.50;53.20;;;;;;5073671;28;20843;-63
2022/03/26 04:02:09;;;;;;;30.30;28.87;;;18.60;53.30;;;;;;5073697;28;20496;-62
2022/03/26 04:04:38;;;;;;;28.53;27.33;;;18.50;53.30;;;;;;5073654;28;20497;-62
2022/03/26 04:07:06;;;;;;;29.57;28.27;;;18.50;53.40;;;;;;5073875;28;20473;-62
2022/03/26 04:09:33;;;;;;;30.73;29.23;;;18.50;53.50;;;;;;5073297;28;20800;-63
2022/03/26 04:11:59;;;;;;;29.27;27.97;;;18.40;53.50;;;;;;5073895;28;20435;-62
2022/03/26 04:14:27;;;;;;;30.60;29.10;;;18.40;53.60;;;;;;5073667;28;20463;-64
2022/03/26 04:16:54;;;;;;;28.87;27.63;;;18.50;53.70;;;;;;5073875;28;20450;-62
2022/03/26 04:19:21;;;;;;;28.90;27.50;;;18.50;53.60;;;;;;5072977;28;20475;-62
2022/03/26 04:21:49;;;;;;;30.83;29.33;;;18.50;53.50;;;;;;5073659;28;20444;-62
2022/03/26 04:24:16;;;;;;;28.97;27.53;;;18.50;53.60;;;;;;5073361;28;20826;-62
2022/03/26 04:26:43;;;;;;;29.90;28.50;;;18.50;53.60;;;;;;5073276;28;20514;-61
2022/03/26 04:29:10;;;;;;;29.90;28.60;;;18.50;53.70;;;;;;5072989;28;20436;-63
2022/03/26 04:31:37;;;;;;;29.20;27.93;;;18.40;53.70;;;;;;5073230;28;20470;-62
2022/03/26 04:34:04;;;;;;;29.10;27.80;;;18.40;53.70;;;;;;5072984;28;20554;-62
2022/03/26 04:36:31;;;;;;;27.40;26.20;;;18.30;53.80;;;;;;5073569;28;20447;-62
2022/03/26 04:39:00;;;;;;;28.67;27.37;;;18.40;53.80;;;;;;5072623;28;20487;-61
2022/03/26 04:41:28;;;;;;;28.73;27.33;;;18.40;53.80;;;;;;5073068;28;20444;-62
2022/03/26 04:43:55;;;;;;;27.90;26.60;;;18.40;53.80;;;;;;5072516;28;20844;-62
2022/03/26 04:46:22;;;;;;;28.43;27.17;;;18.40;53.90;;;;;;5073232;28;20452;-62
2022/03/26 04:48:48;;;;;;;30.90;29.50;;;18.30;53.90;;;;;;5072508;28;20490;-62
2022/03/26 04:51:15;;;;;;;28.97;27.57;;;18.30;54.10;;;;;;5073085;28;20444;-62
2022/03/26 04:53:42;;;;;;;30.13;28.73;;;18.30;54.00;;;;;;5072785;28;20843;-62
2022/03/26 04:56:10;;;;;;;28.30;26.97;;;18.30;54.00;;;;;;5072875;28;20447;-62
2022/03/26 04:58:37;;;;;;;28.70;27.50;;;18.30;53.90;;;;;;5072414;28;20454;-63
2022/03/26 05:01:04;;;;;;;29.20;27.90;;;18.30;54.00;;;;;;5072805;28;20440;-63
2022/03/26 05:03:31;;;;;;;30.37;28.97;;;18.30;54.10;;;;;;5072627;28;20840;-63
2022/03/26 05:05:57;;;;;;;30.63;29.30;;;18.20;54.10;;;;;;5072792;28;20939;-63
2022/03/26 05:08:24;;;;;;;28.70;27.50;;;18.30;54.20;;;;;;5072100;28;20971;-62
2022/03/26 05:10:51;;;;;;;29.97;28.30;;;18.20;54.10;;;;;;5072586;28;20447;-61
2022/03/26 05:13:20;;;;;;;30.50;29.00;;;18.20;54.60;;;;;;5072435;28;20467;-62
2022/03/26 05:15:47;;;;;;;30.93;29.47;;;18.20;54.50;;;;;;5072312;28;20534;-63
2022/03/26 05:18:14;;;;;;;28.60;27.40;;;18.20;55.10;;;;;;5072190;28;20448;-63
2022/03/26 05:20:41;;;;;;;30.60;29.20;;;18.30;55.60;;;;;;5072229;28;20562;-63
2022/03/26 05:23:08;;;;;;;31.70;30.40;;;18.30;55.90;;;;;;5072666;28;20466;-63
2022/03/26 05:25:36;;;;;;;30.47;29.10;;;18.20;56.30;;;;;;5072253;28;20894;-63
2022/03/26 05:28:03;;;;;;;31.70;30.20;;;18.20;56.70;;;;;;5072025;28;21044;-63
2022/03/26 05:30:31;;;;;;;33.00;31.50;;;18.20;57.00;;;;;;5072204;28;20451;-63
2022/03/26 05:32:59;;;;;;;32.07;30.67;;;18.20;57.30;;;;;;5072003;28;20482;-63
2022/03/26 05:35:26;;;;;;;31.73;30.20;;;18.20;57.30;;;;;;5072194;28;20454;-64
2022/03/26 05:37:53;;;;;;;29.43;28.23;;;18.20;57.30;;;;;;5071774;28;20941;-63
2022/03/26 05:40:22;;;;;;;30.10;28.50;;;18.20;57.30;;;;;;5071947;28;20483;-63
2022/03/26 05:42:50;;;;;;;31.30;29.83;;;18.20;57.30;;;;;;5071922;28;21001;-63
2022/03/26 05:45:18;;;;;;;29.43;28.03;;;18.20;57.50;;;;;;5071773;28;20478;-63
2022/03/26 05:47:49;;;;;;;29.73;28.53;;;18.30;57.50;;;;;;5071651;28;20432;-62
2022/03/26 05:50:16;;;;;;;32.27;30.77;;;18.30;57.40;;;;;;5072020;28;20497;-61
2022/03/26 05:52:43;;;;;;;30.40;29.00;;;18.40;57.00;;;;;;5071482;28;20521;-61
2022/03/26 05:55:10;;;;;;;32.20;30.60;;;18.40;57.30;;;;;;5071882;28;20452;-60
2022/03/26 05:57:37;;;;;;;30.20;28.70;;;18.40;57.70;;;;;;5071601;28;20450;-61
2022/03/26 06:00:06;;;;;;;30.90;29.40;;;18.40;57.80;;;;;;5070738;28;20482;-62
2022/03/26 06:02:32;;;;;;;34.90;33.30;;;18.30;57.70;;;;;;5071222;28;20471;-65
2022/03/26 06:05:00;;;;;;;30.50;28.97;;;18.50;57.90;;;;;;5071743;28;20456;-61
2022/03/26 06:07:27;;;;;;;31.37;29.97;;;18.70;57.70;;;;;;5071189;28;20444;-61
2022/03/26 06:09:54;;;;;;;32.60;31.20;;;18.80;58.10;;;;;;5071461;28;20473;-57
2022/03/26 06:12:21;;;;;;;31.60;30.10;;;19.10;57.70;;;;;;5071645;28;20439;-53
2022/03/26 06:14:48;;;;;;;33.07;31.57;;;19.30;56.80;;;;;;5071329;28;20455;-62
2022/03/26 06:17:15;;;;;;;32.03;30.63;;;19.60;56.10;;;;;;5071372;28;20913;-54
2022/03/26 06:19:43;;;;;;;30.67;29.27;;;19.80;55.30;;;;;;5071025;28;20537;-55
2022/03/26 06:22:11;;;;;;;32.30;30.90;;;20.20;55.00;;;;;;5071669;28;20953;-62
2022/03/26 06:24:39;;;;;;;32.07;30.67;;;20.40;54.10;;;;;;5071704;28;20670;-61
2022/03/26 06:27:06;;;;;;;32.97;31.57;;;20.60;53.20;;;;;;5071821;28;20531;-59
2022/03/26 06:29:34;;;;;;;30.70;29.30;;;20.80;52.70;;;;;;5070923;28;20442;-58
2022/03/26 06:32:01;;;;;;;30.70;29.30;;;20.90;52.20;;;;;;5071256;28;20477;-58
2022/03/26 06:34:28;;;;;;;30.77;29.47;;;21.00;51.70;;;;;;5071183;28;20879;-54
2022/03/26 06:36:55;;;;;;;30.97;29.57;;;21.20;51.30;;;;;;5071141;28;20821;-55
2022/03/26 06:39:23;;;;;;;31.90;30.50;;;21.30;51.00;;;;;;5070840;28;20448;-66
2022/03/26 06:41:51;;;;;;;31.13;29.53;;;21.30;50.90;;;;;;5071595;28;20451;-62
2022/03/26 06:44:20;;;;;;;31.30;29.90;;;21.40;51.10;;;;;;5071103;28;20500;-63
2022/03/26 06:46:48;;;;;;;32.07;30.50;;;21.50;51.20;;;;;;5070941;28;20455;-63
2022/03/26 06:49:14;;;;;;;31.30;29.90;;;21.60;51.40;;;;;;5071060;28;20451;-64
2022/03/26 06:51:41;;;;;;;33.20;31.47;;;21.80;51.40;;;;;;5071224;28;20447;-63
2022/03/26 06:54:08;;;;;;;32.87;31.37;;;22.00;51.10;;;;;;5070973;28;20468;-64
2022/03/26 06:56:36;;;;;;;33.13;31.53;;;22.10;50.80;;;;;;5071078;28;20828;-63
2022/03/26 06:59:03;;;;;;;29.40;28.00;;;22.20;50.50;;;;;;5069531;28;20789;-63
2022/03/26 07:01:29;;;;;;;33.80;32.33;;;22.40;49.90;;;;;;5071073;28;20705;-59
2022/03/26 07:03:56;;;;;;;31.53;30.13;;;22.50;49.20;;;;;;5070799;28;20471;-64
2022/03/26 07:06:23;;;;;;;32.03;30.53;;;22.60;49.30;;;;;;5074767;28;20615;-62
2022/03/26 07:08:50;;;;;;;33.00;31.30;;;22.60;49.10;;;;;;5077023;28;20505;-64
2022/03/26 07:11:17;;;;;;;32.40;30.90;;;22.70;48.90;;;;;;5077557;28;20439;-59
2022/03/26 07:13:45;;;;;;;30.50;29.10;;;22.70;48.80;;;;;;5075880;28;20550;-62
2022/03/26 07:16:12;;;;;;;33.43;31.83;;;22.80;48.80;;;;;;5074894;28;20458;-63
2022/03/26 07:18:39;;;;;;;32.20;30.80;;;22.90;48.90;;;;;;5074680;28;20467;-60
2022/03/26 07:21:06;;;;;;;32.90;31.50;;;23.00;48.60;;;;;;5074717;28;20479;-60
2022/03/26 07:23:34;;;;;;;33.30;31.83;;;23.20;48.30;;;;;;5074930;28;20498;-61
2022/03/26 07:26:01;;;;;;;32.30;30.80;;;23.30;47.90;;;;;;5074482;28;20452;-54
2022/03/26 07:28:28;;;;;;;30.60;29.10;;;23.40;47.60;;;;;;5074251;28;20447;-61
2022/03/26 07:30:56;;;;;;;31.73;30.33;;;23.40;47.20;;;;;;5074366;28;20450;-65
2022/03/26 07:33:23;;;;;;;31.50;30.20;;;23.50;47.40;;;;;;5074281;28;20463;-64
2022/03/26 07:35:50;;;;;;;31.80;30.30;;;23.50;47.20;;;;;;5074133;28;20940;-65
2022/03/26 07:38:17;;;;;;;32.43;31.00;;;23.60;47.10;;;;;;5074102;28;20451;-66
2022/03/26 07:40:44;;;;;;;35.47;33.90;;;23.70;47.10;;;;;;5074472;28;20483;-67
2022/03/26 07:43:10;;;;;;;34.00;32.43;;;23.80;46.80;;;;;;5074331;28;20497;-65
2022/03/26 07:45:37;;;;;;;32.90;31.47;;;23.70;46.80;;;;;;5074211;28;20447;-57
2022/03/26 07:48:07;;;;;;;32.40;30.80;;;23.80;47.00;;;;;;5074203;28;20534;-55
2022/03/26 07:50:34;;;;;;;34.13;32.63;;;23.90;47.00;;;;;;5074094;28;20451;-60
2022/03/26 07:53:01;;;;;;;31.40;30.00;;;24.10;46.80;;;;;;5073399;28;20474;-62
2022/03/26 07:55:28;;;;;;;32.47;31.10;;;24.20;46.60;;;;;;5073858;28;20447;-60
2022/03/26 07:57:55;;;;;;;33.00;31.50;;;24.20;46.40;;;;;;5073893;28;20521;-61
2022/03/26 08:00:21;;;;;;;27.90;26.67;;;24.30;46.30;;;;;;5072701;28;20453;-57
2022/03/26 08:02:48;;;;;;;32.20;30.90;;;24.30;46.10;;;;;;5074249;28;20478;-54
2022/03/26 08:05:16;;;;;;;32.33;30.93;;;24.40;46.00;;;;;;5073812;28;20447;-58
2022/03/26 08:07:43;;;;;;;31.00;29.60;;;24.50;45.90;;;;;;5073613;28;20459;-57
2022/03/26 08:10:10;;;;;;;29.13;27.70;;;24.50;45.80;;;;;;5073649;28;20432;-58
2022/03/26 08:12:37;;;;;;;29.70;28.50;;;24.50;45.70;;;;;;5073409;28;20467;-55
2022/03/26 08:15:05;;;;;;;31.60;30.30;;;24.60;45.70;;;;;;5073940;28;20444;-54
2022/03/26 08:17:32;;;;;;;32.30;31.00;;;24.60;45.50;;;;;;5073426;28;20451;-58
2022/03/26 08:19:59;;;;;;;30.63;29.33;;;24.60;45.40;;;;;;5073513;28;20770;-58
2022/03/26 08:22:27;;;;;;;31.70;30.40;;;24.60;45.40;;;;;;5073426;28;20809;-57
2022/03/26 08:24:54;;;;;;;28.60;27.40;;;24.80;46.00;;;;;;5073503;28;20949;-57
2022/03/26 08:27:22;;;;;;;29.20;27.90;;;24.90;45.10;;;;;;5073082;28;20455;-56
2022/03/26 08:29:50;;;;;;;31.20;30.00;;;25.00;44.80;;;;;;5073120;28;20451;-56
2022/03/26 08:32:17;;;;;;;30.10;28.80;;;25.00;44.50;;;;;;5073146;28;20512;-58
2022/03/26 08:34:44;;;;;;;29.77;28.57;;;25.10;44.30;;;;;;5073351;28;20932;-61
2022/03/26 08:37:11;;;;;;;28.40;27.30;;;25.20;44.30;;;;;;5073083;28;20455;-58
2022/03/26 08:39:39;;;;;;;29.80;28.60;;;25.20;44.10;;;;;;5072748;28;20447;-61
2022/03/26 08:42:06;;;;;;;30.57;29.40;;;25.20;44.00;;;;;;5073134;28;20859;-58
2022/03/26 08:44:33;;;;;;;32.30;30.90;;;25.20;43.90;;;;;;5073290;28;20881;-57
2022/03/26 08:47:02;;;;;;;32.73;31.43;;;25.30;44.20;;;;;;5073014;28;20817;-56
2022/03/26 08:49:29;;;;;;;33.73;32.10;;;25.30;44.30;;;;;;5072887;28;20451;-57
2022/03/26 08:51:56;;;;;;;33.60;32.20;;;25.40;44.70;;;;;;5072592;28;20454;-56
2022/03/26 08:54:23;;;;;;;33.07;31.67;;;25.40;44.80;;;;;;5072883;28;20507;-58
2022/03/26 08:56:51;;;;;;;32.63;31.23;;;25.40;44.90;;;;;;5072449;28;20443;-57
2022/03/26 08:59:18;;;;;;;33.77;32.37;;;25.50;45.10;;;;;;5072548;28;20447;-56
2022/03/26 09:01:44;;;;;;;34.20;32.77;;;25.60;45.00;;;;;;5072698;28;20998;-56
2022/03/26 09:04:14;;;;;;;33.10;31.70;;;25.80;45.00;;;;;;5072588;28;20475;-58
2022/03/26 09:06:40;;;;;;;32.40;31.00;;;25.80;44.90;;;;;;5072597;28;20454;-59
2022/03/26 09:09:08;;;;;;;32.23;30.83;;;25.90;44.70;;;;;;5072525;28;20443;-59
2022/03/26 09:11:36;;;;;;;33.80;32.30;;;25.90;44.60;;;;;;5072321;28;20448;-60
2022/03/26 09:14:04;;;;;;;31.20;30.00;;;25.90;44.40;;;;;;5072458;28;20530;-57
2022/03/26 09:16:31;;;;;;;34.20;32.80;;;25.90;44.30;;;;;;5072421;28;21206;-57
2022/03/26 09:18:58;;;;;;;33.53;32.10;;;26.00;44.20;;;;;;5072502;28;20492;-60
2022/03/26 09:21:25;;;;;;;32.67;31.27;;;26.00;44.10;;;;;;5071976;28;20482;-58
2022/03/26 09:23:52;;;;;;;31.67;30.47;;;26.00;44.20;;;;;;5072465;28;20472;-56
2022/03/26 09:26:18;;;;;;;30.67;29.33;;;26.00;43.90;;;;;;5072170;28;20929;-55
2022/03/26 09:28:46;;;;;;;32.03;30.73;;;26.00;44.40;;;;;;5071745;28;20474;-57
2022/03/26 09:31:14;;;;;;;33.00;31.50;;;26.10;43.80;;;;;;5071671;28;20494;-56
2022/03/26 09:33:42;;;;;;;30.87;29.50;;;26.10;43.70;;;;;;5071968;28;20466;-55
2022/03/26 09:36:11;;;;;;;29.63;28.43;;;26.10;43.80;;;;;;5072346;28;20542;-58
2022/03/26 09:38:38;;;;;;;30.57;29.17;;;26.10;43.70;;;;;;5071588;28;20474;-55
2022/03/26 09:41:07;;;;;;;31.10;29.83;;;26.30;43.80;;;;;;5071869;28;20533;-59
2022/03/26 09:43:35;;;;;;;34.80;33.20;;;26.40;43.40;;;;;;5071802;28;20463;-56
2022/03/26 09:46:03;;;;;;;32.57;31.27;;;26.40;43.20;;;;;;5072024;28;20451;-59
2022/03/26 09:48:31;;;;;;;31.90;30.60;;;26.50;43.00;;;;;;5071717;28;20511;-58
2022/03/26 09:50:58;;;;;;;32.07;30.80;;;26.50;42.90;;;;;;5071733;28;20454;-57
2022/03/26 09:53:26;;;;;;;31.70;30.30;;;26.50;42.90;;;;;;5071567;28;20467;-58
2022/03/26 09:55:53;;;;;;;33.97;32.30;;;26.50;42.80;;;;;;5071944;28;20443;-58
2022/03/26 09:58:20;;;;;;;31.53;30.23;;;26.50;42.70;;;;;;5071447;28;20451;-56
2022/03/26 10:00:47;;;;;;;31.40;30.20;;;26.60;42.60;;;;;;5071131;28;20834;-57
2022/03/26 10:03:14;;;;;;;36.07;34.43;;;26.60;42.50;;;;;;5071146;28;20565;-59
2022/03/26 10:05:42;;;;;;;31.17;29.93;;;26.60;42.40;;;;;;5071461;28;20454;-55
2022/03/26 10:08:17;;;;;;;30.23;29.00;;;26.60;42.30;;;;;;5071422;28;20450;-58
2022/03/26 10:10:45;;;;;;;30.70;29.40;;;26.60;42.20;;;;;;5071490;28;20454;-58
2022/03/26 10:13:13;;;;;;;31.67;30.37;;;26.70;42.30;;;;;;5071713;28;20471;-59
2022/03/26 10:16:00;;;;;;;31.60;30.27;;;26.70;42.20;;;;;;5071388;28;20443;-59
2022/03/26 10:18:32;;;;;;;30.60;29.40;;;26.70;42.10;;;;;;5071212;28;20462;-55
2022/03/26 10:21:00;;;;;;;31.17;29.90;;;26.70;42.00;;;;;;5071341;28;20490;-58
2022/03/26 10:23:28;;;;;;;30.83;29.63;;;26.90;42.00;;;;;;5071340;28;20821;-58
2022/03/26 10:26:05;;;;;;;25.80;24.80;;;27.10;41.90;;;;;;5070717;28;20495;-62
2022/03/26 10:28:32;;;;;;;30.63;29.33;;;27.20;41.60;;;;;;5071187;28;20204;-62
2022/03/26 10:34:03;;;;;;;31.00;29.80;;;27.40;41.20;;;;;;5071362;28;20462;-65
2022/03/26 10:36:31;;;;;;;28.87;27.77;;;27.40;41.10;;;;;;5071183;28;20444;-59
2022/03/26 10:38:58;;;;;;;31.20;30.00;;;27.40;41.00;;;;;;5070810;28;20450;-56
2022/03/26 10:41:25;;;;;;;32.80;31.50;;;27.40;41.10;;;;;;5073846;28;20848;-59
2022/03/26 10:44:07;;;;;;;29.67;28.47;;;27.40;41.20;;;;;;5074579;28;20463;-57
2022/03/26 10:46:45;;;;;;;32.33;31.03;;;27.40;41.20;;;;;;5075291;28;20813;-55
2022/03/26 10:49:13;;;;;;;32.37;31.10;;;27.40;41.20;;;;;;5074948;28;20459;-55
2022/03/26 10:51:42;;;;;;;31.17;29.90;;;27.30;41.10;;;;;;5074825;28;20449;-55
2022/03/26 10:54:10;;;;;;;32.00;30.50;;;27.30;41.20;;;;;;5075206;28;20464;-57
2022/03/26 10:56:38;;;;;;;29.03;27.93;;;27.30;41.00;;;;;;5075403;28;20940;-57
2022/03/26 10:59:05;;;;;;;32.67;31.20;;;27.30;41.00;;;;;;5074879;28;20851;-56
2022/03/26 11:01:32;;;;;;;28.37;27.23;;;27.30;41.00;;;;;;5075425;28;20479;-57
2022/03/26 11:03:59;;;;;;;28.63;27.50;;;27.40;41.20;;;;;;5074641;28;20475;-52
2022/03/26 11:06:27;;;;;;;29.93;28.67;;;27.50;41.00;;;;;;5075196;28;20925;-56
2022/03/26 11:09:00;;;;;;;29.03;27.93;;;27.60;40.80;;;;;;5074746;28;20447;-58
2022/03/26 11:11:27;;;;;;;31.80;30.60;;;27.70;40.60;;;;;;5075025;28;20447;-53
2022/03/26 11:13:59;;;;;;;29.97;28.77;;;27.70;40.40;;;;;;5074774;28;20804;-59
2022/03/26 11:16:37;;;;;;;30.23;29.00;;;27.70;40.30;;;;;;5074697;28;20638;-59
2022/03/26 11:19:13;;;;;;;28.73;27.53;;;27.70;40.10;;;;;;5074525;28;20482;-58
2022/03/26 11:22:02;;;;;;;31.50;30.07;;;27.70;40.20;;;;;;5073967;28;20524;-58
2022/03/26 11:24:46;;;;;;;29.30;28.10;;;27.80;40.10;;;;;;5074904;28;20463;-60
2022/03/26 11:27:35;;;;;;;28.90;27.70;;;27.80;40.10;;;;;;5074598;28;20443;-60
2022/03/26 11:30:13;;;;;;;30.53;29.33;;;28.00;39.80;;;;;;5074682;28;20447;-57
2022/03/26 11:32:44;;;;;;;31.57;30.37;;;28.20;39.70;;;;;;5074626;28;20495;-58
2022/03/26 11:35:14;;;;;;;29.73;28.63;;;28.30;39.40;;;;;;5074504;28;20451;-59
2022/03/26 11:37:51;;;;;;;31.07;29.87;;;28.40;39.10;;;;;;5074510;28;20483;-57
2022/03/26 11:40:42;;;;;;;31.47;30.27;;;28.60;38.70;;;;;;5074484;28;20491;-59
2022/03/26 11:43:09;;;;;;;31.87;30.43;;;29.10;38.40;;;;;;5074333;28;20487;-62
2022/03/26 11:51:21;;;;;;;31.73;30.47;;;32.70;34.00;;;;;;5054057;28;20975;-60
2022/03/26 11:53:49;;;;;;;27.97;26.87;;;33.70;32.40;;;;;;5054319;28;20478;-60
2022/03/26 11:56:25;;;;;;;31.03;29.83;;;34.60;31.30;;;;;;5054326;28;20456;-60
2022/03/26 11:59:05;;;;;;;32.08;30.75;;;35.10;30.00;;;;;;5054184;28;20205;-58
2022/03/26 12:01:36;;;;;;;31.92;30.52;;;35.50;29.60;;;;;;5070445;28;20220;-60
2022/03/26 12:04:09;;;;;;;32.05;30.88;;;36.10;29.10;;;;;;5074120;28;20286;-60
2022/03/26 12:06:42;;;;;;;33.40;32.17;;;36.40;28.50;;;;;;5074217;28;20246;-59
2022/03/26 12:09:10;;;;;;;33.35;32.08;;;36.70;28.30;;;;;;5073812;28;20208;-57
2022/03/26 12:11:38;;;;;;;32.20;31.00;;;36.80;28.00;;;;;;5072307;28;20193;-61
2022/03/26 12:14:06;;;;;;;33.17;31.80;;;36.90;27.80;;;;;;5073062;28;20594;-59
2022/03/26 12:16:55;;;;;;;30.65;29.55;;;36.90;27.70;;;;;;5073852;28;20208;-58
2022/03/26 12:19:42;;;;;;;32.58;31.33;;;37.00;27.60;;;;;;5073635;28;20700;-58
2022/03/26 12:22:19;;;;;;;31.48;30.30;;;37.00;27.50;;;;;;5073804;28;20636;-57
2022/03/26 12:24:46;;;;;;;30.92;29.83;;;37.10;27.40;;;;;;5073746;28;20742;-59
2022/03/26 12:27:15;;;;;;;31.77;30.58;;;37.20;27.40;;;;;;5073549;28;20200;-59
2022/03/26 12:29:42;;;;;;;31.30;30.20;;;37.40;27.10;;;;;;5073613;28;20205;-57
2022/03/26 12:32:10;;;;;;;32.85;31.60;;;37.60;27.10;;;;;;5073763;28;20204;-58
2022/03/26 12:34:55;;;;;;;31.33;30.13;;;37.80;26.90;;;;;;5073562;28;20221;-58
2022/03/26 12:37:23;;;;;;;33.05;31.85;;;37.80;26.70;;;;;;5073574;28;20209;-59
2022/03/26 12:39:50;;;;;;;32.45;31.23;;;37.80;26.70;;;;;;5073508;28;20196;-59
2022/03/26 12:42:19;;;;;;;31.02;29.92;;;38.10;26.70;;;;;;5073267;28;20237;-60